sensor_id;sensor_type;location;lat;lon;timestamp;P1;durP1;ratioP1;P2;durP2;ratioP2
73421;SDS011;61637;47.760;-122.022;2023-04-24T00:00:02;17.1;;;3.3;;
73421;SDS011;61637;47.760;-122.022;2023-04-24T00:02:01;15.9;;;3.5;;
73421;SDS011;61637;47.760;-122.022;2023-04-24T00:04:01;21.8;;;3.8;;
73421;SDS011;61637;47.760;-122.022;2023-04-24T00:06:01;15.4;;;3.3;;
73421;SDS011;61637;47.760;-122.022;2023-04-24T00:08:01;18.8;;;3.3;;
73421;SDS011;61637;47.760;-122.022;2023-04-24T00:10:01;15.4;;;3.4;;
73421;SDS011;61637;47.760;-122.022;2023-04-24T00:12:01;14.6;;;3.2;;
73421;SDS011;61637;47.760;-122.022;2023-04-24T00:14:02;14.7;;;3.1;;
73421;SDS011;61637;47.760;-122.022;2023-04-24T00:16:01;18.4;;;3.6;;
73421;SDS011;61637;47.760;-122.022;2023-04-24T00:18:01;18.3;;;3.3;;
73421;SDS011;61637;47.760;-122.022;2023-04-24T00:20:01;17.5;;;3.5;;
73421;SDS011;61637;47.760;-122.022;2023-04-24T00:22:01;18.6;;;3.2;;
73421;SDS011;61637;47.760;-122.022;2023-04-24T00:24:01;17.2;;;3.0;;
73421;SDS011;61637;47.760;-122.022;2023-04-24T00:26:01;17.1;;;3.1;;
73421;SDS011;61637;47.760;-122.022;2023-04-24T00:28:01;12.2;;;3.0;;
73421;SDS011;61637;47.760;-122.022;2023-04-24T00:30:01;18.4;;;3.4;;
73421;SDS011;61637;47.760;-122.022;2023-04-24T00:32:01;16.9;;;3.0;;
73421;SDS011;61637;47.760;-122.022;2023-04-24T00:34:01;12.3;;;2.8;;
73421;SDS011;61637;47.760;-122.022;2023-04-24T00:36:01;13.0;;;2.8;;
73421;SDS011;61637;47.760;-122.022;2023-04-24T00:38:01;13.3;;;2.9;;
73421;SDS011;61637;47.760;-122.022;2023-04-24T00:40:01;15.5;;;3.2;;
73421;SDS011;61637;47.760;-122.022;2023-04-24T00:42:01;15.2;;;3.1;;
73421;SDS011;61637;47.760;-122.022;2023-04-24T00:44:01;13.6;;;3.0;;
73421;SDS011;61637;47.760;-122.022;2023-04-24T00:46:01;15.1;;;3.3;;
73421;SDS011;61637;47.760;-122.022;2023-04-24T00:48:01;17.0;;;3.1;;
73421;SDS011;61637;47.760;-122.022;2023-04-24T00:50:02;12.2;;;3.1;;
73421;SDS011;61637;47.760;-122.022;2023-04-24T00:52:01;17.1;;;2.9;;
73421;SDS011;61637;47.760;-122.022;2023-04-24T00:54:01;16.9;;;3.0;;
73421;SDS011;61637;47.760;-122.022;2023-04-24T00:56:01;12.0;;;2.9;;
73421;SDS011;61637;47.760;-122.022;2023-04-24T00:58:01;14.6;;;3.5;;
73421;SDS011;61637;47.760;-122.022;2023-04-24T01:00:01;15.8;;;3.3;;
73421;SDS011;61637;47.760;-122.022;2023-04-24T01:02:01;15.2;;;3.1;;
73421;SDS011;61637;47.760;-122.022;2023-04-24T01:04:02;12.7;;;3.1;;
73421;SDS011;61637;47.760;-122.022;2023-04-24T01:06:01;15.2;;;3.1;;
73421;SDS011;61637;47.760;-122.022;2023-04-24T01:08:01;12.6;;;3.2;;
73421;SDS011;61637;47.760;-122.022;2023-04-24T01:10:02;13.2;;;3.4;;
73421;SDS011;61637;47.760;-122.022;2023-04-24T01:12:01;13.2;;;3.4;;
73421;SDS011;61637;47.760;-122.022;2023-04-24T01:14:02;15.1;;;3.2;;
73421;SDS011;61637;47.760;-122.022;2023-04-24T01:16:01;14.3;;;3.3;;
73421;SDS011;61637;47.760;-122.022;2023-04-24T01:18:01;12.7;;;3.5;;
73421;SDS011;61637;47.760;-122.022;2023-04-24T01:20:02;12.1;;;3.0;;
73421;SDS011;61637;47.760;-122.022;2023-04-24T01:22:03;13.5;;;3.3;;
73421;SDS011;61637;47.760;-122.022;2023-04-24T01:24:01;13.1;;;3.3;;
73421;SDS011;61637;47.760;-122.022;2023-04-24T01:26:01;14.0;;;3.2;;
73421;SDS011;61637;47.760;-122.022;2023-04-24T01:28:02;13.7;;;3.0;;
73421;SDS011;61637;47.760;-122.022;2023-04-24T01:30:01;11.8;;;3.1;;
73421;SDS011;61637;47.760;-122.022;2023-04-24T01:32:02;14.2;;;3.4;;
73421;SDS011;61637;47.760;-122.022;2023-04-24T01:34:02;13.6;;;3.5;;
73421;SDS011;61637;47.760;-122.022;2023-04-24T01:36:01;13.1;;;3.2;;
73421;SDS011;61637;47.760;-122.022;2023-04-24T01:38:02;17.0;;;3.3;;
73421;SDS011;61637;47.760;-122.022;2023-04-24T01:40:01;15.5;;;3.4;;
73421;SDS011;61637;47.760;-122.022;2023-04-24T01:42:01;10.4;;;2.8;;
73421;SDS011;61637;47.760;-122.022;2023-04-24T01:44:02;14.4;;;3.1;;
73421;SDS011;61637;47.760;-122.022;2023-04-24T01:46:01;12.1;;;3.3;;
73421;SDS011;61637;47.760;-122.022;2023-04-24T01:48:01;12.9;;;3.3;;
73421;SDS011;61637;47.760;-122.022;2023-04-24T01:50:02;15.8;;;3.5;;
73421;SDS011;61637;47.760;-122.022;2023-04-24T01:52:01;16.5;;;3.9;;
73421;SDS011;61637;47.760;-122.022;2023-04-24T01:54:01;15.6;;;3.9;;
73421;SDS011;61637;47.760;-122.022;2023-04-24T01:56:01;14.3;;;3.4;;
73421;SDS011;61637;47.760;-122.022;2023-04-24T01:58:01;15.0;;;3.8;;
73421;SDS011;61637;47.760;-122.022;2023-04-24T02:00:02;13.5;;;3.4;;
73421;SDS011;61637;47.760;-122.022;2023-04-24T02:02:02;17.8;;;4.0;;
73421;SDS011;61637;47.760;-122.022;2023-04-24T02:04:01;15.9;;;3.8;;
73421;SDS011;61637;47.760;-122.022;2023-04-24T02:06:01;14.9;;;3.8;;
73421;SDS011;61637;47.760;-122.022;2023-04-24T02:08:01;17.2;;;3.6;;
73421;SDS011;61637;47.760;-122.022;2023-04-24T02:10:01;18.5;;;3.9;;
73421;SDS011;61637;47.760;-122.022;2023-04-24T02:12:02;18.5;;;4.1;;
73421;SDS011;61637;47.760;-122.022;2023-04-24T02:14:01;16.1;;;3.9;;
73421;SDS011;61637;47.760;-122.022;2023-04-24T02:16:01;15.1;;;3.4;;
73421;SDS011;61637;47.760;-122.022;2023-04-24T02:18:01;17.3;;;3.5;;
73421;SDS011;61637;47.760;-122.022;2023-04-24T02:20:01;15.2;;;3.5;;
73421;SDS011;61637;47.760;-122.022;2023-04-24T02:22:01;14.9;;;3.7;;
73421;SDS011;61637;47.760;-122.022;2023-04-24T02:24:02;13.4;;;3.8;;
73421;SDS011;61637;47.760;-122.022;2023-04-24T02:26:02;18.1;;;4.0;;
73421;SDS011;61637;47.760;-122.022;2023-04-24T02:28:01;15.9;;;4.2;;
73421;SDS011;61637;47.760;-122.022;2023-04-24T02:30:01;20.4;;;4.2;;
73421;SDS011;61637;47.760;-122.022;2023-04-24T02:32:01;15.4;;;3.9;;
73421;SDS011;61637;47.760;-122.022;2023-04-24T02:34:01;15.9;;;4.2;;
73421;SDS011;61637;47.760;-122.022;2023-04-24T02:36:02;15.7;;;4.0;;
73421;SDS011;61637;47.760;-122.022;2023-04-24T02:38:01;13.7;;;4.1;;
73421;SDS011;61637;47.760;-122.022;2023-04-24T02:40:01;19.7;;;4.8;;
73421;SDS011;61637;47.760;-122.022;2023-04-24T02:42:01;16.6;;;4.0;;
73421;SDS011;61637;47.760;-122.022;2023-04-24T02:44:01;15.3;;;4.3;;
73421;SDS011;61637;47.760;-122.022;2023-04-24T02:46:01;19.0;;;4.5;;
73421;SDS011;61637;47.760;-122.022;2023-04-24T02:48:01;19.7;;;5.0;;
73421;SDS011;61637;47.760;-122.022;2023-04-24T02:50:03;22.1;;;5.5;;
73421;SDS011;61637;47.760;-122.022;2023-04-24T02:52:01;22.1;;;5.0;;
73421;SDS011;61637;47.760;-122.022;2023-04-24T02:54:01;18.5;;;4.6;;
73421;SDS011;61637;47.760;-122.022;2023-04-24T02:56:01;19.8;;;4.7;;
73421;SDS011;61637;47.760;-122.022;2023-04-24T02:58:01;20.0;;;5.0;;
73421;SDS011;61637;47.760;-122.022;2023-04-24T03:00:01;20.0;;;5.2;;
73421;SDS011;61637;47.760;-122.022;2023-04-24T03:02:01;18.8;;;5.1;;
73421;SDS011;61637;47.760;-122.022;2023-04-24T03:04:01;18.7;;;4.8;;
73421;SDS011;61637;47.760;-122.022;2023-04-24T03:06:02;16.6;;;4.1;;
73421;SDS011;61637;47.760;-122.022;2023-04-24T03:08:01;16.1;;;4.2;;
73421;SDS011;61637;47.760;-122.022;2023-04-24T03:10:01;19.0;;;4.2;;
73421;SDS011;61637;47.760;-122.022;2023-04-24T03:12:01;unavailable;;;unavailable;;
73421;SDS011;61637;47.760;-122.022;2023-04-24T03:14:01;19.7;;;4.7;;
73421;SDS011;61637;47.760;-122.022;2023-04-24T03:16:01;22.3;;;5.3;;
73421;SDS011;61637;47.760;-122.022;2023-04-24T03:18:01;16.9;;;4.7;;
73421;SDS011;61637;47.760;-122.022;2023-04-24T03:20:01;21.9;;;4.8;;
73421;SDS011;61637;47.760;-122.022;2023-04-24T03:22:02;17.4;;;4.5;;
73421;SDS011;61637;47.760;-122.022;2023-04-24T03:24:01;20.1;;;4.8;;
73421;SDS011;61637;47.760;-122.022;2023-04-24T03:26:01;19.9;;;4.4;;
73421;SDS011;61637;47.760;-122.022;2023-04-24T03:28:01;17.4;;;4.5;;
73421;SDS011;61637;47.760;-122.022;2023-04-24T03:30:01;18.3;;;4.6;;
73421;SDS011;61637;47.760;-122.022;2023-04-24T03:32:01;21.0;;;4.9;;
73421;SDS011;61637;47.760;-122.022;2023-04-24T03:34:01;20.9;;;5.1;;
73421;SDS011;61637;47.760;-122.022;2023-04-24T03:36:02;20.2;;;5.1;;
73421;SDS011;61637;47.760;-122.022;2023-04-24T03:38:01;19.8;;;4.6;;
73421;SDS011;61637;47.760;-122.022;2023-04-24T03:40:01;20.5;;;4.9;;
73421;SDS011;61637;47.760;-122.022;2023-04-24T03:42:01;16.2;;;4.9;;
73421;SDS011;61637;47.760;-122.022;2023-04-24T03:44:01;18.2;;;4.8;;
73421;SDS011;61637;47.760;-122.022;2023-04-24T03:46:02;20.0;;;5.0;;
73421;SDS011;61637;47.760;-122.022;2023-04-24T03:48:02;16.9;;;4.4;;
73421;SDS011;61637;47.760;-122.022;2023-04-24T03:50:02;16.7;;;4.6;;
73421;SDS011;61637;47.760;-122.022;2023-04-24T03:52:01;24.4;;;5.0;;
73421;SDS011;61637;47.760;-122.022;2023-04-24T03:54:01;15.5;;;4.7;;
73421;SDS011;61637;47.760;-122.022;2023-04-24T03:56:01;20.8;;;5.0;;
73421;SDS011;61637;47.760;-122.022;2023-04-24T03:58:01;20.8;;;4.9;;
73421;SDS011;61637;47.760;-122.022;2023-04-24T04:00:01;19.4;;;5.2;;
73421;SDS011;61637;47.760;-122.022;2023-04-24T04:02:01;19.3;;;5.0;;
73421;SDS011;61637;47.760;-122.022;2023-04-24T04:04:01;20.1;;;5.2;;
73421;SDS011;61637;47.760;-122.022;2023-04-24T04:06:01;19.4;;;5.1;;
73421;SDS011;61637;47.760;-122.022;2023-04-24T04:08:01;12.9;;;4.5;;
73421;SDS011;61637;47.760;-122.022;2023-04-24T04:10:01;17.2;;;4.9;;
73421;SDS011;61637;47.760;-122.022;2023-04-24T04:12:02;21.1;;;5.5;;
73421;SDS011;61637;47.760;-122.022;2023-04-24T04:14:02;18.2;;;4.9;;
73421;SDS011;61637;47.760;-122.022;2023-04-24T04:16:01;20.7;;;5.2;;
73421;SDS011;61637;47.760;-122.022;2023-04-24T04:18:01;17.0;;;4.7;;
73421;SDS011;61637;47.760;-122.022;2023-04-24T04:20:01;18.3;;;4.7;;
73421;SDS011;61637;47.760;-122.022;2023-04-24T04:22:01;17.3;;;5.0;;
73421;SDS011;61637;47.760;-122.022;2023-04-24T04:24:01;20.0;;;5.1;;
73421;SDS011;61637;47.760;-122.022;2023-04-24T04:26:01;20.6;;;5.5;;
73421;SDS011;61637;47.760;-122.022;2023-04-24T04:28:01;14.6;;;4.5;;
73421;SDS011;61637;47.760;-122.022;2023-04-24T04:30:01;19.1;;;4.8;;
73421;SDS011;61637;47.760;-122.022;2023-04-24T04:32:01;16.2;;;4.9;;
73421;SDS011;61637;47.760;-122.022;2023-04-24T04:34:01;16.5;;;4.3;;
73421;SDS011;61637;47.760;-122.022;2023-04-24T04:36:01;18.3;;;4.7;;
73421;SDS011;61637;47.760;-122.022;2023-04-24T04:38:01;15.7;;;4.8;;
73421;SDS011;61637;47.760;-122.022;2023-04-24T04:40:02;17.3;;;5.3;;
73421;SDS011;61637;47.760;-122.022;2023-04-24T04:42:01;12.5;;;4.2;;
73421;SDS011;61637;47.760;-122.022;2023-04-24T04:44:01;15.7;;;4.4;;
73421;SDS011;61637;47.760;-122.022;2023-04-24T04:46:01;15.3;;;3.8;;
73421;SDS011;61637;47.760;-122.022;2023-04-24T04:48:01;14.3;;;4.0;;
73421;SDS011;61637;47.760;-122.022;2023-04-24T04:50:01;14.6;;;4.2;;
73421;SDS011;61637;47.760;-122.022;2023-04-24T04:52:01;16.7;;;4.4;;
73421;SDS011;61637;47.760;-122.022;2023-04-24T04:54:01;16.1;;;4.0;;
73421;SDS011;61637;47.760;-122.022;2023-04-24T04:56:01;19.0;;;4.6;;
73421;SDS011;61637;47.760;-122.022;2023-04-24T04:58:01;15.9;;;4.5;;
73421;SDS011;61637;47.760;-122.022;2023-04-24T05:00:01;13.7;;;4.1;;
73421;SDS011;61637;47.760;-122.022;2023-04-24T05:02:01;12.4;;;3.9;;
73421;SDS011;61637;47.760;-122.022;2023-04-24T05:04:01;14.9;;;3.8;;
73421;SDS011;61637;47.760;-122.022;2023-04-24T05:06:01;17.5;;;4.3;;
73421;SDS011;61637;47.760;-122.022;2023-04-24T05:08:01;12.9;;;4.2;;
73421;SDS011;61637;47.760;-122.022;2023-04-24T05:10:01;13.9;;;4.2;;
73421;SDS011;61637;47.760;-122.022;2023-04-24T05:12:01;14.6;;;3.9;;
73421;SDS011;61637;47.760;-122.022;2023-04-24T05:14:01;11.9;;;4.0;;
73421;SDS011;61637;47.760;-122.022;2023-04-24T05:16:01;14.7;;;4.2;;
73421;SDS011;61637;47.760;-122.022;2023-04-24T05:18:01;13.1;;;4.5;;
73421;SDS011;61637;47.760;-122.022;2023-04-24T05:20:02;19.0;;;4.6;;
73421;SDS011;61637;47.760;-122.022;2023-04-24T05:22:01;16.1;;;4.8;;
73421;SDS011;61637;47.760;-122.022;2023-04-24T05:24:01;15.8;;;4.4;;
73421;SDS011;61637;47.760;-122.022;2023-04-24T05:26:02;13.0;;;4.3;;
73421;SDS011;61637;47.760;-122.022;2023-04-24T05:28:01;15.4;;;4.2;;
73421;SDS011;61637;47.760;-122.022;2023-04-24T05:30:01;14.7;;;4.5;;
73421;SDS011;61637;47.760;-122.022;2023-04-24T05:32:01;19.8;;;4.5;;
73421;SDS011;61637;47.760;-122.022;2023-04-24T05:34:01;15.1;;;4.4;;
73421;SDS011;61637;47.760;-122.022;2023-04-24T05:36:01;16.3;;;4.5;;
73421;SDS011;61637;47.760;-122.022;2023-04-24T05:38:01;16.3;;;4.5;;
73421;SDS011;61637;47.760;-122.022;2023-04-24T05:40:01;16.3;;;4.7;;
73421;SDS011;61637;47.760;-122.022;2023-04-24T05:42:01;14.4;;;4.4;;
73421;SDS011;61637;47.760;-122.022;2023-04-24T05:44:01;13.3;;;4.4;;
73421;SDS011;61637;47.760;-122.022;2023-04-24T05:46:01;14.5;;;4.7;;
73421;SDS011;61637;47.760;-122.022;2023-04-24T05:48:01;17.1;;;4.5;;
73421;SDS011;61637;47.760;-122.022;2023-04-24T05:50:01;19.4;;;4.8;;
73421;SDS011;61637;47.760;-122.022;2023-04-24T05:52:01;18.3;;;5.0;;
73421;SDS011;61637;47.760;-122.022;2023-04-24T05:54:01;11.5;;;4.1;;
73421;SDS011;61637;47.760;-122.022;2023-04-24T05:56:01;16.1;;;4.4;;
73421;SDS011;61637;47.760;-122.022;2023-04-24T05:58:01;14.6;;;5.2;;
73421;SDS011;61637;47.760;-122.022;2023-04-24T06:00:01;15.1;;;4.8;;
73421;SDS011;61637;47.760;-122.022;2023-04-24T06:02:01;15.4;;;4.6;;
73421;SDS011;61637;47.760;-122.022;2023-04-24T06:04:02;15.7;;;4.5;;
73421;SDS011;61637;47.760;-122.022;2023-04-24T06:06:01;13.1;;;4.1;;
73421;SDS011;61637;47.760;-122.022;2023-04-24T06:08:01;13.4;;;4.3;;
73421;SDS011;61637;47.760;-122.022;2023-04-24T06:10:01;17.3;;;5.2;;
73421;SDS011;61637;47.760;-122.022;2023-04-24T06:12:01;12.5;;;4.4;;
73421;SDS011;61637;47.760;-122.022;2023-04-24T06:14:01;15.7;;;4.8;;
73421;SDS011;61637;47.760;-122.022;2023-04-24T06:16:01;16.9;;;5.4;;
73421;SDS011;61637;47.760;-122.022;2023-04-24T06:18:01;13.1;;;4.4;;
73421;SDS011;61637;47.760;-122.022;2023-04-24T06:20:01;15.8;;;5.3;;
73421;SDS011;61637;47.760;-122.022;2023-04-24T06:22:01;12.1;;;4.2;;
73421;SDS011;61637;47.760;-122.022;2023-04-24T06:24:01;13.8;;;4.4;;
73421;SDS011;61637;47.760;-122.022;2023-04-24T06:26:01;14.9;;;4.6;;
73421;SDS011;61637;47.760;-122.022;2023-04-24T06:28:01;14.9;;;4.5;;
73421;SDS011;61637;47.760;-122.022;2023-04-24T06:30:01;13.7;;;4.5;;
73421;SDS011;61637;47.760;-122.022;2023-04-24T06:32:01;14.4;;;5.0;;
73421;SDS011;61637;47.760;-122.022;2023-04-24T06:34:01;13.6;;;4.3;;
73421;SDS011;61637;47.760;-122.022;2023-04-24T06:36:01;11.4;;;3.7;;
73421;SDS011;61637;47.760;-122.022;2023-04-24T06:38:01;16.8;;;4.9;;
73421;SDS011;61637;47.760;-122.022;2023-04-24T06:40:01;14.9;;;4.2;;
73421;SDS011;61637;47.760;-122.022;2023-04-24T06:42:01;14.9;;;4.4;;
73421;SDS011;61637;47.760;-122.022;2023-04-24T06:44:01;16.4;;;4.9;;
73421;SDS011;61637;47.760;-122.022;2023-04-24T06:46:01;16.4;;;4.4;;
73421;SDS011;61637;47.760;-122.022;2023-04-24T06:48:01;10.9;;;3.9;;
73421;SDS011;61637;47.760;-122.022;2023-04-24T06:50:01;18.9;;;5.0;;
73421;SDS011;61637;47.760;-122.022;2023-04-24T06:52:01;13.8;;;4.4;;
73421;SDS011;61637;47.760;-122.022;2023-04-24T06:54:01;12.5;;;4.0;;
73421;SDS011;61637;47.760;-122.022;2023-04-24T06:56:01;11.9;;;4.1;;
73421;SDS011;61637;47.760;-122.022;2023-04-24T06:58:01;11.9;;;3.9;;
73421;SDS011;61637;47.760;-122.022;2023-04-24T07:00:02;12.3;;;3.6;;
73421;SDS011;61637;47.760;-122.022;2023-04-24T07:02:01;10.0;;;3.4;;
73421;SDS011;61637;47.760;-122.022;2023-04-24T07:04:01;8.5;;;3.4;;
73421;SDS011;61637;47.760;-122.022;2023-04-24T07:06:01;11.6;;;4.1;;
73421;SDS011;61637;47.760;-122.022;2023-04-24T07:08:01;12.5;;;3.8;;
73421;SDS011;61637;47.760;-122.022;2023-04-24T07:10:01;11.3;;;3.9;;
73421;SDS011;61637;47.760;-122.022;2023-04-24T07:12:02;15.4;;;4.2;;
73421;SDS011;61637;47.760;-122.022;2023-04-24T07:14:01;10.7;;;3.7;;
73421;SDS011;61637;47.760;-122.022;2023-04-24T07:16:01;9.3;;;3.5;;
73421;SDS011;61637;47.760;-122.022;2023-04-24T07:18:01;9.5;;;3.8;;
73421;SDS011;61637;47.760;-122.022;2023-04-24T07:20:01;9.9;;;3.7;;
73421;SDS011;61637;47.760;-122.022;2023-04-24T07:22:01;11.0;;;3.5;;
73421;SDS011;61637;47.760;-122.022;2023-04-24T07:24:02;10.6;;;3.8;;
73421;SDS011;61637;47.760;-122.022;2023-04-24T07:26:01;11.5;;;3.4;;
73421;SDS011;61637;47.760;-122.022;2023-04-24T07:28:01;9.2;;;3.2;;
73421;SDS011;61637;47.760;-122.022;2023-04-24T07:30:01;10.6;;;3.3;;
73421;SDS011;61637;47.760;-122.022;2023-04-24T07:32:01;8.8;;;2.7;;
73421;SDS011;61637;47.760;-122.022;2023-04-24T07:34:01;7.4;;;2.3;;
73421;SDS011;61637;47.760;-122.022;2023-04-24T07:36:01;6.8;;;2.1;;
73421;SDS011;61637;47.760;-122.022;2023-04-24T07:38:01;7.6;;;2.2;;
73421;SDS011;61637;47.760;-122.022;2023-04-24T07:40:01;9.4;;;2.2;;
73421;SDS011;61637;47.760;-122.022;2023-04-24T07:42:01;5.0;;;1.7;;
73421;SDS011;61637;47.760;-122.022;2023-04-24T07:44:01;5.6;;;1.7;;
73421;SDS011;61637;47.760;-122.022;2023-04-24T07:46:01;7.0;;;1.6;;
73421;SDS011;61637;47.760;-122.022;2023-04-24T07:48:01;5.6;;;1.6;;
73421;SDS011;61637;47.760;-122.022;2023-04-24T07:50:01;5.8;;;1.6;;
73421;SDS011;61637;47.760;-122.022;2023-04-24T07:52:01;4.9;;;1.6;;
73421;SDS011;61637;47.760;-122.022;2023-04-24T07:54:01;5.8;;;1.7;;
73421;SDS011;61637;47.760;-122.022;2023-04-24T07:56:01;5.6;;;1.6;;
73421;SDS011;61637;47.760;-122.022;2023-04-24T07:58:01;5.5;;;1.6;;
73421;SDS011;61637;47.760;-122.022;2023-04-24T08:00:03;6.0;;;1.6;;
73421;SDS011;61637;47.760;-122.022;2023-04-24T08:02:01;5.0;;;1.5;;
73421;SDS011;61637;47.760;-122.022;2023-04-24T08:04:01;5.5;;;1.4;;
73421;SDS011;61637;47.760;-122.022;2023-04-24T08:06:01;4.3;;;1.3;;
73421;SDS011;61637;47.760;-122.022;2023-04-24T08:08:01;5.9;;;1.7;;
73421;SDS011;61637;47.760;-122.022;2023-04-24T08:10:02;5.0;;;1.4;;
73421;SDS011;61637;47.760;-122.022;2023-04-24T08:12:02;4.2;;;1.4;;
73421;SDS011;61637;47.760;-122.022;2023-04-24T08:14:01;4.1;;;1.3;;
73421;SDS011;61637;47.760;-122.022;2023-04-24T08:16:01;5.6;;;1.5;;
73421;SDS011;61637;47.760;-122.022;2023-04-24T08:18:01;6.4;;;1.9;;
73421;SDS011;61637;47.760;-122.022;2023-04-24T08:20:01;5.7;;;1.4;;
73421;SDS011;61637;47.760;-122.022;2023-04-24T08:22:01;4.9;;;1.5;;
73421;SDS011;61637;47.760;-122.022;2023-04-24T08:24:01;4.0;;;1.3;;
73421;SDS011;61637;47.760;-122.022;2023-04-24T08:26:01;4.2;;;1.3;;
73421;SDS011;61637;47.760;-122.022;2023-04-24T08:28:03;5.9;;;1.5;;
73421;SDS011;61637;47.760;-122.022;2023-04-24T08:30:01;5.8;;;1.5;;
73421;SDS011;61637;47.760;-122.022;2023-04-24T08:32:01;4.7;;;1.3;;
73421;SDS011;61637;47.760;-122.022;2023-04-24T08:34:01;3.9;;;1.2;;
73421;SDS011;61637;47.760;-122.022;2023-04-24T08:36:03;5.6;;;1.3;;
73421;SDS011;61637;47.760;-122.022;2023-04-24T08:38:01;4.2;;;1.4;;
73421;SDS011;61637;47.760;-122.022;2023-04-24T08:40:02;4.2;;;1.3;;
73421;SDS011;61637;47.760;-122.022;2023-04-24T08:42:02;3.9;;;1.2;;
73421;SDS011;61637;47.760;-122.022;2023-04-24T08:44:01;5.0;;;1.2;;
73421;SDS011;61637;47.760;-122.022;2023-04-24T08:46:03;5.2;;;1.4;;
73421;SDS011;61637;47.760;-122.022;2023-04-24T08:48:02;4.0;;;1.1;;
73421;SDS011;61637;47.760;-122.022;2023-04-24T08:50:02;3.2;;;1.1;;
73421;SDS011;61637;47.760;-122.022;2023-04-24T08:52:01;3.1;;;0.9;;
73421;SDS011;61637;47.760;-122.022;2023-04-24T08:54:02;2.9;;;1.0;;
73421;SDS011;61637;47.760;-122.022;2023-04-24T08:56:02;5.0;;;1.1;;
73421;SDS011;61637;47.760;-122.022;2023-04-24T08:58:02;4.3;;;1.0;;
73421;SDS011;61637;47.760;-122.022;2023-04-24T09:00:02;5.7;;;1.2;;
73421;SDS011;61637;47.760;-122.022;2023-04-24T09:02:03;4.4;;;1.2;;
73421;SDS011;61637;47.760;-122.022;2023-04-24T09:04:02;4.9;;;1.0;;
73421;SDS011;61637;47.760;-122.022;2023-04-24T09:06:02;2.9;;;0.9;;
73421;SDS011;61637;47.760;-122.022;2023-04-24T09:08:01;3.8;;;1.1;;
73421;SDS011;61637;47.760;-122.022;2023-04-24T09:10:01;4.1;;;1.0;;
73421;SDS011;61637;47.760;-122.022;2023-04-24T09:12:02;3.5;;;1.1;;
73421;SDS011;61637;47.760;-122.022;2023-04-24T09:14:01;3.3;;;1.0;;
73421;SDS011;61637;47.760;-122.022;2023-04-24T09:16:01;3.5;;;1.1;;
73421;SDS011;61637;47.760;-122.022;2023-04-24T09:18:01;3.1;;;1.0;;
73421;SDS011;61637;47.760;-122.022;2023-04-24T09:20:01;3.6;;;1.1;;
73421;SDS011;61637;47.760;-122.022;2023-04-24T09:22:04;2.8;;;0.9;;
73421;SDS011;61637;47.760;-122.022;2023-04-24T09:24:03;3.8;;;1.0;;
73421;SDS011;61637;47.760;-122.022;2023-04-24T09:26:02;3.2;;;0.9;;
73421;SDS011;61637;47.760;-122.022;2023-04-24T09:28:02;3.2;;;0.9;;
73421;SDS011;61637;47.760;-122.022;2023-04-24T09:30:02;3.0;;;0.9;;
73421;SDS011;61637;47.760;-122.022;2023-04-24T09:32:18;3.2;;;0.8;;
73421;SDS011;61637;47.760;-122.022;2023-04-24T09:34:02;3.2;;;0.9;;
73421;SDS011;61637;47.760;-122.022;2023-04-24T09:36:01;2.8;;;0.8;;
73421;SDS011;61637;47.760;-122.022;2023-04-24T09:38:01;3.0;;;0.8;;
73421;SDS011;61637;47.760;-122.022;2023-04-24T09:40:11;3.0;;;0.9;;
73421;SDS011;61637;47.760;-122.022;2023-04-24T09:42:01;2.2;;;0.8;;
73421;SDS011;61637;47.760;-122.022;2023-04-24T09:44:11;2.5;;;0.8;;
73421;SDS011;61637;47.760;-122.022;2023-04-24T09:46:05;4.2;;;1.0;;
73421;SDS011;61637;47.760;-122.022;2023-04-24T09:48:02;4.0;;;0.8;;
73421;SDS011;61637;47.760;-122.022;2023-04-24T09:50:09;2.9;;;0.8;;
73421;SDS011;61637;47.760;-122.022;2023-04-24T09:52:04;4.2;;;0.9;;
73421;SDS011;61637;47.760;-122.022;2023-04-24T09:54:01;3.0;;;1.0;;
73421;SDS011;61637;47.760;-122.022;2023-04-24T09:56:06;3.5;;;0.8;;
73421;SDS011;61637;47.760;-122.022;2023-04-24T09:58:01;3.5;;;0.8;;
73421;SDS011;61637;47.760;-122.022;2023-04-24T10:00:01;2.6;;;0.7;;
73421;SDS011;61637;47.760;-122.022;2023-04-24T10:02:01;3.8;;;1.1;;
73421;SDS011;61637;47.760;-122.022;2023-04-24T10:04:01;4.4;;;0.9;;
73421;SDS011;61637;47.760;-122.022;2023-04-24T10:06:02;2.5;;;0.8;;
73421;SDS011;61637;47.760;-122.022;2023-04-24T10:08:03;3.0;;;0.9;;
73421;SDS011;61637;47.760;-122.022;2023-04-24T10:10:01;4.4;;;0.9;;
73421;SDS011;61637;47.760;-122.022;2023-04-24T10:12:01;3.7;;;0.9;;
73421;SDS011;61637;47.760;-122.022;2023-04-24T10:14:01;3.0;;;0.9;;
73421;SDS011;61637;47.760;-122.022;2023-04-24T10:16:03;4.0;;;0.9;;
73421;SDS011;61637;47.760;-122.022;2023-04-24T10:18:02;6.7;;;1.0;;
73421;SDS011;61637;47.760;-122.022;2023-04-24T10:20:02;3.8;;;0.9;;
73421;SDS011;61637;47.760;-122.022;2023-04-24T10:22:02;2.4;;;0.8;;
73421;SDS011;61637;47.760;-122.022;2023-04-24T10:24:02;3.7;;;1.0;;
73421;SDS011;61637;47.760;-122.022;2023-04-24T10:26:01;2.6;;;0.9;;
73421;SDS011;61637;47.760;-122.022;2023-04-24T10:28:02;2.9;;;0.9;;
73421;SDS011;61637;47.760;-122.022;2023-04-24T10:30:02;3.3;;;0.9;;
73421;SDS011;61637;47.760;-122.022;2023-04-24T10:32:01;4.1;;;0.9;;
73421;SDS011;61637;47.760;-122.022;2023-04-24T10:34:03;2.8;;;0.8;;
73421;SDS011;61637;47.760;-122.022;2023-04-24T10:36:01;2.6;;;0.8;;
73421;SDS011;61637;47.760;-122.022;2023-04-24T10:38:04;3.8;;;1.0;;
73421;SDS011;61637;47.760;-122.022;2023-04-24T10:40:01;3.1;;;0.9;;
73421;SDS011;61637;47.760;-122.022;2023-04-24T10:42:01;3.9;;;1.3;;
73421;SDS011;61637;47.760;-122.022;2023-04-24T10:44:05;4.2;;;1.1;;
73421;SDS011;61637;47.760;-122.022;2023-04-24T10:46:02;5.3;;;1.1;;
73421;SDS011;61637;47.760;-122.022;2023-04-24T10:48:03;4.7;;;1.2;;
73421;SDS011;61637;47.760;-122.022;2023-04-24T10:50:01;4.3;;;0.9;;
73421;SDS011;61637;47.760;-122.022;2023-04-24T10:52:04;3.7;;;1.1;;
73421;SDS011;61637;47.760;-122.022;2023-04-24T10:56:04;4.1;;;1.0;;
73421;SDS011;61637;47.760;-122.022;2023-04-24T10:58:03;3.9;;;1.1;;
73421;SDS011;61637;47.760;-122.022;2023-04-24T11:00:14;3.9;;;1.2;;
73421;SDS011;61637;47.760;-122.022;2023-04-24T11:02:01;3.5;;;1.0;;
73421;SDS011;61637;47.760;-122.022;2023-04-24T11:04:02;4.9;;;1.0;;
73421;SDS011;61637;47.760;-122.022;2023-04-24T11:06:03;3.1;;;1.1;;
73421;SDS011;61637;47.760;-122.022;2023-04-24T11:08:11;3.4;;;1.0;;
73421;SDS011;61637;47.760;-122.022;2023-04-24T11:10:01;4.9;;;0.9;;
73421;SDS011;61637;47.760;-122.022;2023-04-24T11:12:06;4.1;;;1.0;;
73421;SDS011;61637;47.760;-122.022;2023-04-24T11:14:02;4.9;;;1.0;;
73421;SDS011;61637;47.760;-122.022;2023-04-24T11:16:12;3.8;;;0.9;;
73421;SDS011;61637;47.760;-122.022;2023-04-24T11:18:01;3.4;;;0.9;;
73421;SDS011;61637;47.760;-122.022;2023-04-24T11:20:02;3.7;;;1.0;;
73421;SDS011;61637;47.760;-122.022;2023-04-24T11:22:03;2.8;;;1.0;;
73421;SDS011;61637;47.760;-122.022;2023-04-24T11:26:11;3.1;;;1.0;;
73421;SDS011;61637;47.760;-122.022;2023-04-24T11:28:05;2.8;;;1.0;;
73421;SDS011;61637;47.760;-122.022;2023-04-24T11:30:03;2.8;;;1.0;;
73421;SDS011;61637;47.760;-122.022;2023-04-24T11:32:14;3.4;;;1.2;;
73421;SDS011;61637;47.760;-122.022;2023-04-24T11:34:06;2.8;;;1.0;;
73421;SDS011;61637;47.760;-122.022;2023-04-24T11:36:02;3.3;;;1.0;;
73421;SDS011;61637;47.760;-122.022;2023-04-24T11:38:01;3.1;;;1.0;;
73421;SDS011;61637;47.760;-122.022;2023-04-24T11:40:01;4.6;;;1.2;;
73421;SDS011;61637;47.760;-122.022;2023-04-24T11:42:03;3.6;;;0.9;;
73421;SDS011;61637;47.760;-122.022;2023-04-24T11:44:03;2.8;;;0.9;;
73421;SDS011;61637;47.760;-122.022;2023-04-24T11:46:01;2.4;;;0.9;;
73421;SDS011;61637;47.760;-122.022;2023-04-24T11:48:03;3.5;;;1.0;;